Hodgeville, Canada
Current Conditions -  °F | °C
As of 11:00 AM on Saturday 20 Dec 2014 (Local Time) from CYYN Reporting Station
Few Clouds Few Clouds  
Wind Chill: 18°   Ceiling: Unl
Heat Index: 30°   Visibility: 9mi
Dew Point: 27°   Wind: 20mph
Humidity: 86%   Direction: 250°WSW
Pressure: 29.71"   Gusts: NA
Location:  50.12°N, 106.98°W
Report Text: CYYN 201700Z AUTO 25017KT 9SM FEW065 M01/M03 A2971 RMK SLP092
Loading
Personal Weather Stations






























Interactive Weather Map New forecast layout! Learn more

10-Day Weather Forecast

Advertisements
Track Severe Weather on mobile